createdAt,value
2019-05-22T00:01:16.090Z,98224.67
2019-05-22T00:04:07.942Z,98222.17
2019-05-22T00:06:43.802Z,98220.32
2019-05-22T00:09:23.236Z,98221.23
2019-05-22T00:11:59.429Z,98228.27
2019-05-22T00:14:33.526Z,98228.23
2019-05-22T00:17:09.814Z,98227.08
2019-05-22T00:19:45.262Z,98226.03
2019-05-22T00:22:26.852Z,98229.30
2019-05-22T00:25:01.898Z,98233.11
2019-05-22T00:27:37.830Z,98242.45
2019-05-22T00:30:17.207Z,98235.87
2019-05-22T00:32:51.445Z,98242.36
2019-05-22T00:35:27.942Z,98244.50
2019-05-22T00:38:03.674Z,98244.72
2019-05-22T00:40:45.687Z,98251.61
2019-05-22T00:43:18.974Z,98241.84
2019-05-22T00:45:54.951Z,98243.33
2019-05-22T00:48:30.727Z,98243.60
2019-05-22T00:51:24.390Z,98243.03
2019-05-22T00:54:22.806Z,98245.12
2019-05-22T00:57:16.008Z,98246.19
2019-05-22T00:59:51.561Z,98252.61
2019-05-22T01:02:28.266Z,98249.66
2019-05-22T01:05:02.455Z,98248.66
2019-05-22T01:07:43.424Z,98247.14
2019-05-22T01:10:18.869Z,98242.97
2019-05-22T01:12:57.260Z,98245.05
2019-05-22T01:15:32.321Z,98242.64
2019-05-22T01:18:11.155Z,98244.99
2019-05-22T01:20:47.276Z,98244.55
2019-05-22T01:23:22.190Z,98246.80
2019-05-22T01:25:57.557Z,98248.59
2019-05-22T01:28:30.772Z,98251.73
2019-05-22T01:31:11.747Z,98248.69
2019-05-22T01:33:54.486Z,98251.70
2019-05-22T01:36:59.068Z,98252.42
2019-05-22T01:39:47.955Z,98253.69
2019-05-22T01:42:27.998Z,98264.69
2019-05-22T01:45:06.565Z,98268.05
2019-05-22T01:48:01.227Z,98272.95
2019-05-22T01:50:55.671Z,98272.05
2019-05-22T01:53:36.811Z,98278.02
2019-05-22T01:56:12.993Z,98287.97
2019-05-22T01:58:48.584Z,98283.63
2019-05-22T02:01:23.958Z,98288.85
2019-05-22T02:03:59.113Z,98284.41
2019-05-22T02:06:34.525Z,98280.88
2019-05-22T02:09:34.075Z,98283.18
2019-05-22T02:12:37.963Z,98284.28
2019-05-22T02:15:13.620Z,98280.33
2019-05-22T02:17:50.286Z,98282.25
2019-05-22T02:20:25.010Z,98290.77
2019-05-22T02:22:58.875Z,98285.33
2019-05-22T02:25:34.931Z,98288.34
2019-05-22T02:28:10.797Z,98284.44
2019-05-22T02:30:47.313Z,98284.66
2019-05-22T02:33:22.695Z,98282.86
2019-05-22T02:35:57.666Z,98282.39
2019-05-22T02:38:32.611Z,98282.95
2019-05-22T02:41:09.253Z,98280.86
2019-05-22T02:43:44.102Z,98283.89
2019-05-22T02:46:19.235Z,98291.22
2019-05-22T02:48:52.755Z,98291.59
2019-05-22T02:51:27.088Z,98296.13
2019-05-22T02:54:02.633Z,98297.64
2019-05-22T02:56:37.512Z,98306.25
2019-05-22T02:59:13.253Z,98315.92
2019-05-22T03:01:47.835Z,98322.13
2019-05-22T03:04:23.309Z,98320.98
2019-05-22T03:06:59.138Z,98320.84
2019-05-22T03:09:34.685Z,98315.23
2019-05-22T03:12:13.770Z,98312.36
2019-05-22T03:14:49.369Z,98312.80
2019-05-22T03:17:31.985Z,98312.39
2019-05-22T03:20:12.823Z,98319.95
2019-05-22T03:23:22.994Z,98314.73
2019-05-22T03:25:57.406Z,98313.78
2019-05-22T03:28:32.640Z,98309.39
2019-05-22T03:31:06.374Z,98314.58
2019-05-22T03:33:40.393Z,98314.65
2019-05-22T03:36:21.574Z,98315.94
2019-05-22T03:38:56.269Z,98314.61
2019-05-22T03:41:30.826Z,98320.11
2019-05-22T03:44:05.944Z,98315.36
2019-05-22T03:46:47.037Z,98324.50
2019-05-22T03:49:31.182Z,98321.00
2019-05-22T03:51:59.330Z,98320.69
2019-05-22T03:54:33.828Z,98325.45
2019-05-22T03:57:08.347Z,98318.19
2019-05-22T03:59:43.299Z,98310.20
2019-05-22T04:02:17.346Z,98319.75
2019-05-22T04:04:52.728Z,98321.91
2019-05-22T04:07:29.191Z,98331.86
2019-05-22T04:10:06.237Z,98330.52
2019-05-22T04:12:40.845Z,98326.97
2019-05-22T04:15:15.054Z,98333.59
2019-05-22T04:17:51.448Z,98329.11
2019-05-22T04:20:26.552Z,98329.63
2019-05-22T04:23:01.469Z,98335.92
2019-05-22T04:25:35.781Z,98338.39
2019-05-22T04:28:08.788Z,98344.70
2019-05-22T04:30:43.184Z,98344.47
2019-05-22T04:33:19.378Z,98357.20
2019-05-22T04:35:53.188Z,98354.28
2019-05-22T04:38:28.869Z,98354.78
2019-05-22T04:41:04.293Z,98353.59
2019-05-22T04:43:38.920Z,98357.17
2019-05-22T04:46:13.162Z,98360.52
2019-05-22T04:48:46.725Z,98362.20
2019-05-22T04:51:40.006Z,98368.02
2019-05-22T04:54:13.902Z,98369.87
2019-05-22T04:56:48.857Z,98364.14
2019-05-22T04:59:23.660Z,98368.34
2019-05-22T05:01:58.281Z,98366.27
2019-05-22T05:04:32.390Z,98370.89
2019-05-22T05:07:07.502Z,98370.77
2019-05-22T05:09:45.672Z,98371.45
2019-05-22T05:12:19.229Z,98375.77
2019-05-22T05:14:52.565Z,98378.51
2019-05-22T05:17:26.015Z,98379.53
2019-05-22T05:19:58.809Z,98376.80
2019-05-22T05:22:47.155Z,98384.30
2019-05-22T05:25:21.232Z,98381.09
2019-05-22T05:27:56.054Z,98383.59
2019-05-22T05:30:30.862Z,98383.72
2019-05-22T05:33:04.343Z,98382.75
2019-05-22T05:35:40.028Z,98384.91
2019-05-22T05:38:16.325Z,98386.79
2019-05-22T05:40:49.557Z,98392.34
2019-05-22T05:43:23.744Z,98391.84
2019-05-22T05:45:58.645Z,98399.47
2019-05-22T05:48:33.699Z,98395.61
2019-05-22T05:51:45.982Z,98395.34
2019-05-22T05:54:23.653Z,98397.94
2019-05-22T05:56:59.184Z,98406.84
2019-05-22T05:59:33.709Z,98396.31
2019-05-22T06:02:08.666Z,98399.09
2019-05-22T06:04:43.566Z,98399.01
2019-05-22T06:07:27.283Z,98407.87
2019-05-22T06:11:02.922Z,98407.87
2019-05-22T06:13:36.881Z,98408.34
2019-05-22T06:17:12.105Z,98402.69
2019-05-22T06:19:48.969Z,98407.30
2019-05-22T06:22:24.012Z,98400.47
2019-05-22T06:25:06.957Z,98397.34
2019-05-22T06:27:50.529Z,98394.61
2019-05-22T06:30:46.636Z,98396.56
2019-05-22T06:33:35.662Z,98389.54
2019-05-22T06:36:15.438Z,98386.17
2019-05-22T06:39:00.463Z,98390.67
2019-05-22T06:41:36.482Z,98385.77
2019-05-22T06:44:43.851Z,98395.45
2019-05-22T06:47:21.560Z,98398.42
2019-05-22T06:49:57.126Z,98392.13
2019-05-22T06:52:29.734Z,98396.94
2019-05-22T06:55:04.943Z,98399.98
2019-05-22T06:57:38.583Z,98397.39
2019-05-22T07:00:24.167Z,98400.61
2019-05-22T07:02:57.874Z,98392.83
2019-05-22T07:05:31.885Z,98395.09
2019-05-22T07:08:06.147Z,98389.56
2019-05-22T07:10:42.275Z,98394.80
2019-05-22T07:13:17.124Z,98389.27
2019-05-22T07:15:52.678Z,98392.42
2019-05-22T07:18:31.900Z,98392.67
2019-05-22T07:21:07.356Z,98390.97
2019-05-22T07:23:42.511Z,98394.52
2019-05-22T07:26:16.919Z,98394.13
2019-05-22T07:28:51.411Z,98391.97
2019-05-22T07:31:25.382Z,98395.44
2019-05-22T07:34:00.270Z,98401.74
2019-05-22T07:36:35.405Z,98409.94
2019-05-22T07:39:10.690Z,98405.70
2019-05-22T07:41:43.438Z,98410.49
2019-05-22T07:44:17.241Z,98408.39
2019-05-22T07:46:50.158Z,98407.60
2019-05-22T07:49:23.679Z,98417.38
2019-05-22T07:52:01.600Z,98404.62
2019-05-22T07:54:31.676Z,98406.98
2019-05-22T07:57:05.356Z,98405.69
2019-05-22T07:59:38.390Z,98398.05
2019-05-22T08:02:14.305Z,98403.83
2019-05-22T08:04:48.129Z,98406.23
2019-05-22T08:07:24.682Z,98411.82
2019-05-22T08:09:57.924Z,98400.04
2019-05-22T08:12:32.396Z,98409.80
2019-05-22T08:15:07.193Z,98418.33
2019-05-22T08:17:41.622Z,98417.33
2019-05-22T08:20:14.923Z,98423.40
2019-05-22T08:22:49.176Z,98427.34
2019-05-22T08:25:21.567Z,98432.22
2019-05-22T08:27:58.666Z,98436.05
2019-05-22T08:30:32.303Z,98432.16
2019-05-22T08:33:10.650Z,98438.33
2019-05-22T08:35:44.312Z,98436.80
2019-05-22T08:38:17.526Z,98447.30
2019-05-22T08:40:53.050Z,98435.33
2019-05-22T08:43:26.053Z,98442.14
2019-05-22T08:46:00.090Z,98447.77
2019-05-22T08:48:35.514Z,98441.38
2019-05-22T08:51:09.874Z,98435.09
2019-05-22T08:53:47.985Z,98431.74
2019-05-22T08:56:20.210Z,98440.52
2019-05-22T08:58:55.016Z,98442.59
2019-05-22T09:01:29.081Z,98451.16
2019-05-22T09:04:02.606Z,98444.95
2019-05-22T09:06:35.182Z,98453.92
2019-05-22T09:09:08.994Z,98460.63
2019-05-22T09:11:41.452Z,98454.22
2019-05-22T09:14:14.874Z,98456.05
2019-05-22T09:16:48.903Z,98453.48
2019-05-22T09:19:21.362Z,98446.09
2019-05-22T09:21:54.920Z,98449.52
2019-05-22T09:24:28.892Z,98448.44
2019-05-22T09:27:02.889Z,98451.91
2019-05-22T09:29:35.139Z,98458.20
2019-05-22T09:32:09.230Z,98453.55
2019-05-22T09:34:42.521Z,98449.84
2019-05-22T09:37:16.791Z,98458.06
2019-05-22T09:39:50.817Z,98458.59
2019-05-22T09:42:25.044Z,98469.86
2019-05-22T09:44:58.298Z,98470.05
2019-05-22T09:47:32.951Z,98471.25
2019-05-22T09:50:06.864Z,98474.31
2019-05-22T09:52:56.361Z,98473.95
2019-05-22T09:55:17.656Z,98481.22
2019-05-22T09:57:51.275Z,98477.97
2019-05-22T10:00:25.711Z,98476.67
2019-05-22T10:03:00.031Z,98479.67
2019-05-22T10:05:35.205Z,98482.05
2019-05-22T10:08:09.354Z,98481.52
2019-05-22T10:10:43.240Z,98486.42
2019-05-22T10:13:18.053Z,98482.75
2019-05-22T10:15:52.531Z,98488.39
2019-05-22T10:18:27.240Z,98501.64
2019-05-22T10:21:00.715Z,98500.95
2019-05-22T10:23:34.177Z,98499.24
2019-05-22T10:26:08.304Z,98504.78
2019-05-22T10:28:41.965Z,98508.58
2019-05-22T10:31:17.290Z,98509.59
2019-05-22T10:33:52.016Z,98511.44
2019-05-22T10:36:26.118Z,98507.19
2019-05-22T10:39:00.777Z,98508.22
2019-05-22T10:41:34.673Z,98505.55
2019-05-22T10:44:08.297Z,98510.82
2019-05-22T10:46:43.246Z,98514.55
2019-05-22T10:49:16.728Z,98516.97
2019-05-22T10:51:51.595Z,98516.35
2019-05-22T10:54:25.407Z,98511.43
2019-05-22T10:56:59.727Z,98516.86
2019-05-22T10:59:33.084Z,98521.92
2019-05-22T11:02:06.958Z,98527.22
2019-05-22T11:04:42.104Z,98524.30
2019-05-22T11:07:15.976Z,98522.23
2019-05-22T11:09:51.638Z,98520.84
2019-05-22T11:12:26.132Z,98521.79
2019-05-22T11:14:59.405Z,98517.88
2019-05-22T11:17:33.371Z,98517.17
2019-05-22T11:20:08.174Z,98517.48
2019-05-22T11:22:42.926Z,98510.46
2019-05-22T11:25:17.270Z,98513.21
2019-05-22T11:27:51.246Z,98512.97
2019-05-22T11:30:24.968Z,98511.33
2019-05-22T11:32:59.662Z,98510.70
2019-05-22T11:35:34.789Z,98514.23
2019-05-22T11:38:09.446Z,98517.34
2019-05-22T11:40:44.061Z,98519.49
2019-05-22T11:43:18.279Z,98523.63
2019-05-22T11:45:52.070Z,98523.05
2019-05-22T11:48:26.014Z,98521.42
2019-05-22T11:51:00.979Z,98526.04
2019-05-22T11:53:35.067Z,98533.97
2019-05-22T11:56:08.970Z,98534.30
2019-05-22T11:58:42.518Z,98530.66
2019-05-22T12:01:15.439Z,98524.23
2019-05-22T12:03:49.240Z,98523.42
2019-05-22T12:06:22.105Z,98524.05
2019-05-22T12:08:56.074Z,98521.13
2019-05-22T12:11:29.099Z,98524.91
2019-05-22T12:14:03.005Z,98522.85
2019-05-22T12:16:36.664Z,98522.32
2019-05-22T12:19:09.860Z,98522.00
2019-05-22T12:21:42.791Z,98523.53
2019-05-22T12:24:27.105Z,98524.32
2019-05-22T12:26:51.020Z,98519.02
2019-05-22T12:29:24.452Z,98520.92
2019-05-22T12:31:57.654Z,98524.27
2019-05-22T12:34:30.619Z,98523.18
2019-05-22T12:37:03.632Z,98527.72
2019-05-22T12:39:38.322Z,98532.34
2019-05-22T12:42:14.061Z,98525.04
2019-05-22T12:44:47.058Z,98521.85
2019-05-22T12:47:21.562Z,98522.28
2019-05-22T12:49:55.760Z,98526.25
2019-05-22T12:52:29.856Z,98533.78
2019-05-22T12:55:03.154Z,98533.16
2019-05-22T12:57:36.512Z,98521.84
2019-05-22T13:00:11.989Z,98523.71
2019-05-22T13:02:46.600Z,98525.83
2019-05-22T13:05:20.393Z,98527.39
2019-05-22T13:07:54.302Z,98521.61
2019-05-22T13:10:29.350Z,98520.28
2019-05-22T13:13:06.202Z,98514.30
2019-05-22T13:15:40.624Z,98519.61
2019-05-22T13:18:16.397Z,98524.58
2019-05-22T13:20:52.177Z,98528.02
2019-05-22T13:23:29.192Z,98525.38
2019-05-22T13:26:03.148Z,98524.80
2019-05-22T13:28:38.813Z,98522.70
2019-05-22T13:31:12.847Z,98523.77
2019-05-22T13:33:46.882Z,98522.84
2019-05-22T13:36:23.029Z,98522.81
2019-05-22T13:38:55.619Z,98521.98
2019-05-22T13:41:29.916Z,98528.02
2019-05-22T13:44:06.516Z,98524.76
2019-05-22T13:46:38.867Z,98530.44
2019-05-22T13:49:11.461Z,98535.14
2019-05-22T13:51:44.096Z,98540.27
2019-05-22T13:54:17.152Z,98540.28
2019-05-22T13:56:50.598Z,98543.42
2019-05-22T13:59:23.927Z,98546.26
2019-05-22T14:01:58.766Z,98552.62
2019-05-22T14:04:31.634Z,98553.34
2019-05-22T14:07:06.789Z,98553.72
2019-05-22T14:09:41.760Z,98557.38
2019-05-22T14:12:16.351Z,98557.30
2019-05-22T14:14:50.311Z,98564.66
2019-05-22T14:17:24.421Z,98570.20
2019-05-22T14:19:58.236Z,98563.97
2019-05-22T14:22:32.333Z,98560.91
2019-05-22T14:25:06.168Z,98561.42
2019-05-22T14:27:42.034Z,98568.91
2019-05-22T14:30:16.879Z,98564.41
2019-05-22T14:32:50.192Z,98554.47
2019-05-22T14:35:25.886Z,98551.27
2019-05-22T14:38:00.456Z,98544.17
2019-05-22T14:40:36.304Z,98541.05
2019-05-22T14:43:10.668Z,98540.38
2019-05-22T14:45:46.305Z,98537.70
2019-05-22T14:48:20.755Z,98546.30
2019-05-22T14:50:54.613Z,98557.12
2019-05-22T14:53:29.307Z,98559.45
2019-05-22T14:56:03.942Z,98560.01
2019-05-22T14:58:37.328Z,98565.58
2019-05-22T15:01:11.419Z,98566.59
2019-05-22T15:03:45.365Z,98574.53
2019-05-22T15:06:20.776Z,98582.80
2019-05-22T15:08:54.892Z,98592.30
2019-05-22T15:11:28.884Z,98601.84
2019-05-22T15:14:03.049Z,98592.00
2019-05-22T15:16:37.600Z,98600.42
2019-05-22T15:19:11.856Z,98599.21
2019-05-22T15:21:45.796Z,98605.59
2019-05-22T15:24:20.393Z,98608.61
2019-05-22T15:26:54.771Z,98612.91
2019-05-22T15:29:29.187Z,98613.06
2019-05-22T15:32:04.237Z,98616.14
2019-05-22T15:34:40.911Z,98614.47
2019-05-22T15:37:20.138Z,98619.38
2019-05-22T15:39:54.593Z,98629.40
2019-05-22T15:42:45.055Z,98642.68
2019-05-22T15:45:23.566Z,98652.19
2019-05-22T15:48:01.717Z,98653.06
2019-05-22T15:50:35.365Z,98647.62
2019-05-22T15:53:15.140Z,98646.50
2019-05-22T15:55:49.989Z,98648.12
2019-05-22T15:58:25.906Z,98650.76
2019-05-22T16:01:01.317Z,98657.56
2019-05-22T16:03:35.731Z,98665.02
2019-05-22T16:06:11.424Z,98679.05
2019-05-22T16:08:45.710Z,98684.39
2019-05-22T16:11:20.720Z,98688.89
2019-05-22T16:13:57.795Z,98696.28
2019-05-22T16:16:32.850Z,98693.58
2019-05-22T16:19:12.500Z,98695.58
2019-05-22T16:21:51.016Z,98695.83
2019-05-22T16:24:25.315Z,98705.34
2019-05-22T16:26:58.936Z,98711.11
2019-05-22T16:29:36.943Z,98715.67
2019-05-22T16:32:14.901Z,98715.69
2019-05-22T16:34:50.007Z,98723.02
2019-05-22T16:37:26.257Z,98722.23
2019-05-22T16:40:01.293Z,98715.77
2019-05-22T16:42:36.578Z,98714.56
2019-05-22T16:45:11.558Z,98725.00
2019-05-22T16:47:46.366Z,98729.50
2019-05-22T16:50:21.009Z,98733.25
2019-05-22T16:52:55.426Z,98737.17
2019-05-22T16:55:30.351Z,98734.91
2019-05-22T16:58:04.777Z,98732.71
2019-05-22T17:00:39.439Z,98742.65
2019-05-22T17:03:14.276Z,98744.66
2019-05-22T17:05:47.724Z,98757.16
2019-05-22T17:08:23.705Z,98753.98
2019-05-22T17:10:59.302Z,98758.26
2019-05-22T17:13:35.827Z,98766.83
2019-05-22T17:16:10.879Z,98771.07
2019-05-22T17:18:47.993Z,98769.55
2019-05-22T17:21:20.787Z,98775.40
2019-05-22T17:23:54.657Z,98781.72
2019-05-22T17:26:27.912Z,98775.13
2019-05-22T17:29:01.482Z,98779.17
2019-05-22T17:31:35.248Z,98777.54
2019-05-22T17:34:28.035Z,98775.00
2019-05-22T17:37:03.343Z,98789.10
2019-05-22T17:39:38.596Z,98792.61
2019-05-22T17:42:14.327Z,98818.49
2019-05-22T17:44:51.077Z,98822.83
2019-05-22T17:47:27.205Z,98806.41
2019-05-22T17:50:02.444Z,98821.72
2019-05-22T17:52:35.611Z,98820.25
2019-05-22T17:55:10.193Z,98809.61
2019-05-22T17:57:43.963Z,98809.81
2019-05-22T18:00:38.528Z,98807.73
2019-05-22T18:03:11.299Z,98813.41
2019-05-22T18:05:45.098Z,98816.35
2019-05-22T18:08:18.377Z,98826.27
2019-05-22T18:10:54.242Z,98827.80
2019-05-22T18:13:28.881Z,98833.52
2019-05-22T18:16:04.769Z,98834.09
2019-05-22T18:18:38.508Z,98848.31
2019-05-22T18:21:12.750Z,98856.19
2019-05-22T18:23:47.211Z,98848.88
2019-05-22T18:26:21.947Z,98851.20
2019-05-22T18:28:56.264Z,98859.98
2019-05-22T18:31:28.725Z,98851.66
2019-05-22T18:34:01.570Z,98872.34
2019-05-22T18:36:34.150Z,98853.56
2019-05-22T18:39:09.708Z,98862.39
2019-05-22T18:41:43.678Z,98867.83
2019-05-22T18:44:17.946Z,98879.37
2019-05-22T18:46:51.784Z,98874.27
2019-05-22T18:49:25.923Z,98867.91
2019-05-22T18:52:00.633Z,98872.91
2019-05-22T18:54:34.727Z,98878.23
2019-05-22T18:57:08.593Z,98877.81
2019-05-22T18:59:42.461Z,98881.52
2019-05-22T19:02:16.104Z,98882.48
2019-05-22T19:04:49.062Z,98903.86
2019-05-22T19:07:21.931Z,98910.67
2019-05-22T19:09:55.042Z,98910.91
2019-05-22T19:12:28.539Z,98903.52
2019-05-22T19:15:01.330Z,98917.53
2019-05-22T19:17:34.410Z,98922.04
2019-05-22T19:20:07.278Z,98925.45
2019-05-22T19:22:58.063Z,98917.16
2019-05-22T19:25:15.749Z,98921.58
2019-05-22T19:27:49.629Z,98921.21
2019-05-22T19:30:24.348Z,98919.28
2019-05-22T19:32:57.047Z,98922.91
2019-05-22T19:35:29.081Z,98924.23
2019-05-22T19:38:02.318Z,98929.75
2019-05-22T19:40:36.245Z,98931.31
2019-05-22T19:43:09.760Z,98931.75
2019-05-22T19:45:43.279Z,98936.45
2019-05-22T19:48:16.317Z,98937.28
2019-05-22T19:50:49.694Z,98932.91
2019-05-22T19:53:23.357Z,98929.36
2019-05-22T19:55:56.726Z,98931.05
2019-05-22T19:58:30.408Z,98928.28
2019-05-22T20:01:03.585Z,98940.11
2019-05-22T20:03:38.001Z,98949.76
2019-05-22T20:06:11.783Z,98939.44
2019-05-22T20:08:45.682Z,98950.45
2019-05-22T20:11:19.434Z,98954.20
2019-05-22T20:13:52.359Z,98955.05
2019-05-22T20:16:25.767Z,98956.14
2019-05-22T20:18:59.711Z,98954.91
2019-05-22T20:21:32.707Z,98964.09
2019-05-22T20:24:08.250Z,98964.84
2019-05-22T20:26:40.755Z,98970.55
2019-05-22T20:29:17.843Z,98963.34
2019-05-22T20:31:50.604Z,98969.30
2019-05-22T20:34:23.804Z,98969.97
2019-05-22T20:36:57.738Z,98975.39
2019-05-22T20:39:31.589Z,98976.49
2019-05-22T20:42:05.205Z,98973.29
2019-05-22T20:44:40.290Z,98969.55
2019-05-22T20:47:17.312Z,98975.30
2019-05-22T20:49:49.934Z,98979.77
2019-05-22T20:52:26.068Z,98966.88
2019-05-22T20:55:02.227Z,98976.45
2019-05-22T20:57:36.361Z,98979.16
2019-05-22T21:00:11.968Z,98973.64
2019-05-22T21:02:45.684Z,98971.54
2019-05-22T21:05:22.303Z,98980.18
2019-05-22T21:08:00.530Z,98989.20
2019-05-22T21:10:35.395Z,98981.95
2019-05-22T21:13:10.686Z,98971.75
2019-05-22T21:15:45.407Z,98979.89
2019-05-22T21:18:21.754Z,98970.88
2019-05-22T21:20:56.682Z,98969.02
2019-05-22T21:23:31.790Z,98976.47
2019-05-22T21:26:07.493Z,98976.02
2019-05-22T21:28:41.815Z,98982.08
2019-05-22T21:31:17.232Z,98997.66
2019-05-22T21:33:50.701Z,98993.36
2019-05-22T21:36:25.664Z,98991.39
2019-05-22T21:39:00.785Z,99000.25
2019-05-22T21:41:34.544Z,98998.98
2019-05-22T21:44:09.976Z,98998.64
2019-05-22T21:46:44.516Z,99009.50
2019-05-22T21:49:20.204Z,99008.58
2019-05-22T21:51:54.955Z,99006.43
2019-05-22T21:54:29.302Z,99004.95
2019-05-22T21:57:03.205Z,99000.70
2019-05-22T21:59:37.551Z,99012.22
2019-05-22T22:02:25.212Z,99009.10
2019-05-22T22:04:59.327Z,99004.67
2019-05-22T22:07:33.557Z,99009.66
2019-05-22T22:10:07.827Z,99009.98
2019-05-22T22:12:42.405Z,99011.13
2019-05-22T22:15:15.424Z,99013.45
2019-05-22T22:17:49.486Z,99018.70
2019-05-22T22:20:24.234Z,99019.64
2019-05-22T22:22:59.094Z,99016.22
2019-05-22T22:25:33.156Z,99025.36
2019-05-22T22:28:06.686Z,99022.12
2019-05-22T22:30:47.037Z,99023.89
2019-05-22T22:33:25.054Z,99029.70
2019-05-22T22:35:59.266Z,99017.12
2019-05-22T22:38:35.755Z,99032.69
2019-05-22T22:41:13.021Z,99030.52
2019-05-22T22:43:49.565Z,99027.56
2019-05-22T22:46:40.783Z,99032.14
2019-05-22T22:49:19.337Z,99031.55
2019-05-22T22:51:54.176Z,99038.28
2019-05-22T22:54:28.656Z,99040.98
2019-05-22T22:57:03.748Z,99038.55
2019-05-22T22:59:38.481Z,99036.82
2019-05-22T23:02:17.497Z,99040.98
2019-05-22T23:04:52.787Z,99037.44
2019-05-22T23:07:28.161Z,99040.66
2019-05-22T23:10:02.807Z,99042.63
2019-05-22T23:12:39.878Z,99037.58
2019-05-22T23:15:18.284Z,99047.77
2019-05-22T23:17:53.743Z,99046.84
2019-05-22T23:20:22.439Z,99054.51
2019-05-22T23:22:52.632Z,99047.47
2019-05-22T23:25:27.184Z,99049.41
2019-05-22T23:28:03.189Z,99054.41
2019-05-22T23:30:37.865Z,99057.61
2019-05-22T23:33:11.565Z,99057.78
2019-05-22T23:35:45.631Z,99056.27
2019-05-22T23:38:19.766Z,99067.50
2019-05-22T23:40:55.420Z,99059.62
2019-05-22T23:43:30.318Z,99058.67
2019-05-22T23:46:04.283Z,99061.15
2019-05-22T23:48:38.762Z,99064.55
2019-05-22T23:51:13.674Z,99064.18
2019-05-22T23:53:48.834Z,99068.22
2019-05-22T23:56:23.705Z,99068.38
2019-05-22T23:58:59.118Z,99066.02
